Impacts TAF Board
For situational awareness. Not to be used for flight planning purposes.
IDs:

KFVE - Frenchville/N Aroost, ME, US

Issued at 1720 UTC 01 Feb 2023
Updated at 2249 UTC 01 Feb 2023
Potential Impact None Slight Moderate High
Time2153Z 01/23Z 02/00Z 02/01Z 02/02Z 02/03Z 02/04Z 02/05Z 02/06Z 02/07Z 02/08Z 02/09Z 02/10Z 02/11Z>>
Type OBS PRVL PRVL PRVL PRVL PRVL PRVL PRVL PRVL PRVL PRVL PRVL PRVL PRVL
VIS 10 >6 >6 >6 >6 >6 >6 >6 >6 >6 >6 >6 >6 >6
CIG 60 -- -- -- -- -- -- -- -- -- -- -- -- --
Cover BKN FEW FEW FEW FEW SCT SCT SCT SCT SCT SCT SCT SCT SCT
FltCat VFR VFR VFR VFR VFR VFR VFR VFR VFR VFR VFR VFR VFR VFR
WX -- -- -- -- -- -- -- -- -- -- -- -- -- --
WDir 150 190 190 190 190 200 200 200 200 200 200 200 200 200
WSpd 5 5 5 5 5 6 6 6 6 6 6 6 6 6
WGst -- -- -- -- -- -- -- -- -- -- -- -- -- --
WSHgt -- -- -- -- -- -- -- -- -- -- -- -- -- --
WSDir -- -- -- -- -- -- -- -- -- -- -- -- -- --
WSSpd -- -- -- -- -- -- -- -- -- -- -- -- -- --

NOTE: LAMP data beyond the time of the TAF data is denoted as LAMP in Type and colored magenta.

Raw TAF
KFVE 011720Z 0118/0218 19005KT P6SM FEW150
  FM020300 20006KT P6SM SCT050
  FM021300 21005KT P6SM BKN070


Raw METAR
KFVE 012153Z AUTO 15005KT 10SM BKN060 M11/M18 A3003 RMK AO2 SLP191 T11061178
KFVE 012053Z AUTO 18003KT 10SM CLR M11/M18 A3003 RMK AO2 SLP193 T11061178 56011
KFVE 011953Z AUTO 14004KT 10SM CLR M11/M18 A3004 RMK AO2 SLP194 T11061178

METAR Board
Radar Display
Forecast Discussion

For situational awareness. Not to be used for flight planning purposes.